Buda, Illinois
Current Conditions -  °F | °C
As of 4:10 PM on Sunday 21 Dec 2014 (Local Time) from KC75 Reporting Station
Overcast Overcast  
Wind Chill: 31°   Ceiling: 2100
Heat Index: 37°   Visibility: 7mi
Dew Point: 30°   Wind: 7mph
Humidity: 78%   Direction: 170°S
Pressure: 30.04"   Gusts: NA
Location:  41.33°N, 89.68°W
Report Text: KC75 212210Z AUTO 17006KT 7SM BKN021 OVC029 03/M01 A3004 RMK AO2 T00251010
Loading
Personal Weather Stations






























Interactive Weather Map New forecast layout! Learn more

10-Day Weather Forecast

Advertisements
Track Severe Weather on mobile